createdAt,value
2018-02-20T00:02:16.328Z,1.10
2018-02-20T00:04:43.972Z,1.10
2018-02-20T00:07:12.212Z,1.10
2018-02-20T00:09:39.931Z,1.10
2018-02-20T00:12:08.008Z,1.10
2018-02-20T00:14:35.737Z,1.10
2018-02-20T00:17:03.425Z,1.10
2018-02-20T00:19:31.558Z,1.00
2018-02-20T00:21:59.913Z,1.00
2018-02-20T00:24:27.556Z,1.00
2018-02-20T00:26:55.295Z,1.00
2018-02-20T00:29:23.002Z,1.00
2018-02-20T00:31:50.683Z,0.90
2018-02-20T00:34:18.472Z,0.90
2018-02-20T00:36:46.896Z,0.80
2018-02-20T00:39:15.086Z,0.80
2018-02-20T00:41:42.805Z,0.70
2018-02-20T00:44:10.483Z,0.70
2018-02-20T00:46:38.422Z,0.60
2018-02-20T00:49:06.775Z,0.60
2018-02-20T00:51:35.761Z,0.60
2018-02-20T00:54:03.482Z,0.50
2018-02-20T00:56:31.129Z,0.50
2018-02-20T00:59:00.567Z,0.40
2018-02-20T01:01:28.261Z,0.40
2018-02-20T01:03:56.027Z,0.40
2018-02-20T01:06:23.814Z,0.40
2018-02-20T01:08:51.896Z,0.40
2018-02-20T01:11:19.924Z,0.30
2018-02-20T01:13:48.420Z,0.30
2018-02-20T01:16:16.178Z,0.30
2018-02-20T01:18:43.954Z,0.30
2018-02-20T01:21:12.643Z,0.40
2018-02-20T01:23:40.505Z,0.40
2018-02-20T01:26:09.450Z,0.40
2018-02-20T01:28:37.295Z,0.40
2018-02-20T01:31:05.407Z,0.50
2018-02-20T01:33:33.158Z,0.40
2018-02-20T01:36:00.862Z,0.50
2018-02-20T01:38:28.518Z,0.50
2018-02-20T01:40:56.214Z,0.50
2018-02-20T01:43:23.886Z,0.50
2018-02-20T01:45:51.586Z,0.50
2018-02-20T01:48:19.277Z,0.50
2018-02-20T01:50:58.710Z,0.50
2018-02-20T01:53:26.383Z,0.50
2018-02-20T01:55:54.939Z,0.50
2018-02-20T01:58:22.623Z,0.40
2018-02-20T02:00:50.599Z,0.30
2018-02-20T02:03:18.373Z,0.20
2018-02-20T02:05:46.417Z,-0.10
2018-02-20T02:08:14.163Z,-0.10
2018-02-20T02:10:41.878Z,-0.20
2018-02-20T02:13:09.603Z,-0.30
2018-02-20T02:15:37.266Z,-0.40
2018-02-20T02:18:04.938Z,-0.50
2018-02-20T02:20:32.622Z,-0.60
2018-02-20T02:23:01.233Z,-0.60
2018-02-20T02:25:28.944Z,-0.70
2018-02-20T02:27:56.747Z,-0.70
2018-02-20T02:30:24.418Z,-0.80
2018-02-20T02:32:52.085Z,-0.80
2018-02-20T02:35:19.739Z,-0.80
2018-02-20T02:37:47.418Z,-0.80
2018-02-20T02:40:15.165Z,-0.80
2018-02-20T02:42:43.268Z,-0.90
2018-02-20T02:45:10.937Z,-0.90
2018-02-20T02:47:38.931Z,-0.90
2018-02-20T02:50:06.659Z,-1.00
2018-02-20T02:52:34.348Z,-1.00
2018-02-20T02:55:02.082Z,-1.00
2018-02-20T02:57:29.761Z,-1.10
2018-02-20T02:59:57.500Z,-1.10
2018-02-20T03:02:25.257Z,-1.10
2018-02-20T03:04:52.918Z,-1.20
2018-02-20T03:07:20.606Z,-1.20
2018-02-20T03:09:48.254Z,-1.20
2018-02-20T03:12:15.914Z,-1.20
2018-02-20T03:14:43.645Z,-1.30
2018-02-20T03:17:11.741Z,-1.30
2018-02-20T03:19:39.389Z,-1.30
2018-02-20T03:22:07.448Z,-1.30
2018-02-20T03:24:35.556Z,-1.30
2018-02-20T03:27:03.568Z,-1.30
2018-02-20T03:29:31.231Z,-1.30
2018-02-20T03:31:58.914Z,-1.30
2018-02-20T03:34:27.003Z,-1.30
2018-02-20T03:36:55.027Z,-1.30
2018-02-20T03:39:22.706Z,-1.30
2018-02-20T03:41:50.789Z,-1.30
2018-02-20T03:44:18.538Z,-1.30
2018-02-20T03:46:46.209Z,-1.30
2018-02-20T03:49:13.908Z,-1.30
2018-02-20T03:51:42.673Z,-1.30
2018-02-20T03:54:10.776Z,-1.30
2018-02-20T03:56:38.462Z,-1.40
2018-02-20T03:59:06.562Z,-1.40
2018-02-20T04:01:34.302Z,-1.40
2018-02-20T04:04:01.992Z,-1.40
2018-02-20T04:06:29.563Z,-1.40
2018-02-20T04:08:57.612Z,-1.50
2018-02-20T04:11:25.308Z,-1.50
2018-02-20T04:13:53.366Z,-1.50
2018-02-20T04:16:21.458Z,-1.50
2018-02-20T04:18:49.187Z,-1.60
2018-02-20T04:21:16.899Z,-1.60
2018-02-20T04:23:44.856Z,-1.60
2018-02-20T04:26:12.600Z,-1.60
2018-02-20T04:28:40.715Z,-1.70
2018-02-20T04:31:08.393Z,-1.70
2018-02-20T04:33:36.036Z,-1.70
2018-02-20T04:36:03.693Z,-1.70
2018-02-20T04:38:31.458Z,-1.70
2018-02-20T04:41:03.853Z,-1.70
2018-02-20T04:43:31.605Z,-1.70
2018-02-20T04:45:59.473Z,-1.70
2018-02-20T04:48:28.432Z,-1.80
2018-02-20T04:50:56.164Z,-1.80
2018-02-20T04:53:23.886Z,-1.80
2018-02-20T04:55:51.552Z,-1.80
2018-02-20T04:58:19.275Z,-1.80
2018-02-20T05:00:46.973Z,-1.80
2018-02-20T05:03:14.709Z,-1.80
2018-02-20T05:05:42.376Z,-1.80
2018-02-20T05:08:10.102Z,-1.90
2018-02-20T05:10:37.915Z,-1.80
2018-02-20T05:13:05.571Z,-1.80
2018-02-20T05:15:33.319Z,-1.80
2018-02-20T05:18:01.033Z,-1.80
2018-02-20T05:20:28.690Z,-1.80
2018-02-20T05:22:56.929Z,-1.80
2018-02-20T05:25:24.751Z,-1.70
2018-02-20T05:27:52.410Z,-1.70
2018-02-20T05:30:20.100Z,-1.70
2018-02-20T05:32:47.863Z,-1.70
2018-02-20T05:35:15.596Z,-1.60
2018-02-20T05:37:43.276Z,-1.60
2018-02-20T05:40:11.427Z,-1.50
2018-02-20T05:42:39.129Z,-1.50
2018-02-20T05:45:07.238Z,-1.50
2018-02-20T05:47:34.956Z,-1.50
2018-02-20T05:50:03.216Z,-1.40
2018-02-20T05:52:31.352Z,-1.40
2018-02-20T05:54:59.979Z,-1.40
2018-02-20T05:57:28.061Z,-1.40
2018-02-20T05:59:56.152Z,-1.30
2018-02-20T06:02:24.218Z,-1.30
2018-02-20T06:04:52.181Z,-1.30
2018-02-20T06:07:19.827Z,-1.30
2018-02-20T06:09:47.455Z,-1.30
2018-02-20T06:12:15.029Z,-1.30
2018-02-20T06:14:42.605Z,-1.30
2018-02-20T06:17:15.638Z,-1.30
2018-02-20T06:19:44.376Z,-1.30
2018-02-20T06:22:12.083Z,-1.20
2018-02-20T06:24:41.529Z,-1.20
2018-02-20T06:30:17.718Z,-1.20
2018-02-20T06:32:45.464Z,-1.20
2018-02-20T06:35:14.168Z,-1.20
2018-02-20T06:37:42.964Z,-1.10
2018-02-20T06:40:12.791Z,-1.10
2018-02-20T06:42:40.542Z,-1.10
2018-02-20T06:45:11.971Z,-1.10
2018-02-20T06:47:49.218Z,-1.10
2018-02-20T06:50:37.045Z,-1.00
2018-02-20T06:53:07.247Z,-1.00
2018-02-20T06:55:38.948Z,-1.00
2018-02-20T06:58:06.754Z,-1.00
2018-02-20T07:00:35.746Z,-1.00
2018-02-20T07:03:04.005Z,-1.00
2018-02-20T07:05:34.933Z,-1.00
2018-02-20T07:08:07.447Z,-0.90
2018-02-20T07:10:35.895Z,-0.90
2018-02-20T07:13:03.595Z,-0.80
2018-02-20T07:15:33.243Z,-0.80
2018-02-20T07:18:02.062Z,-0.70
2018-02-20T07:20:30.802Z,-0.70
2018-02-20T07:23:01.246Z,-0.60
2018-02-20T07:25:32.343Z,-0.60
2018-02-20T07:28:00.922Z,-0.50
2018-02-20T07:30:28.665Z,-0.40
2018-02-20T07:32:56.263Z,-0.30
2018-02-20T07:35:24.401Z,-0.20
2018-02-20T07:37:59.702Z,-0.20
2018-02-20T07:40:29.467Z,-0.20
2018-02-20T07:42:57.659Z,-0.10
2018-02-20T07:45:25.751Z,-0.10
2018-02-20T07:50:33.908Z,0.00
2018-02-20T07:53:02.540Z,-0.10
2018-02-20T07:55:32.945Z,0.00
2018-02-20T07:58:02.430Z,0.10
2018-02-20T08:00:30.154Z,0.10
2018-02-20T08:02:58.680Z,0.10
2018-02-20T08:05:26.360Z,0.10
2018-02-20T08:07:55.132Z,0.10
2018-02-20T08:10:24.337Z,0.10
2018-02-20T08:12:52.045Z,0.20
2018-02-20T08:15:20.863Z,0.20
2018-02-20T08:17:48.515Z,0.20
2018-02-20T08:20:16.243Z,0.20
2018-02-20T08:22:44.720Z,0.30
2018-02-20T08:25:12.400Z,0.30
2018-02-20T08:27:41.078Z,0.30
2018-02-20T08:30:16.628Z,0.50
2018-02-20T08:32:51.979Z,0.50
2018-02-20T08:35:24.349Z,0.60
2018-02-20T08:37:55.604Z,0.60
2018-02-20T08:40:31.389Z,0.60
2018-02-20T08:43:07.135Z,0.70
2018-02-20T08:45:36.643Z,0.70
2018-02-20T08:48:05.514Z,0.80
2018-02-20T08:50:35.577Z,0.80
2018-02-20T08:53:15.426Z,0.90
2018-02-20T08:58:29.028Z,0.90
2018-02-20T09:01:00.827Z,1.00
2018-02-20T09:03:28.687Z,0.90
2018-02-20T09:05:58.642Z,0.80
2018-02-20T09:08:29.037Z,0.80
2018-02-20T09:10:57.717Z,1.00
2018-02-20T09:13:26.401Z,1.00
2018-02-20T09:15:54.066Z,1.10
2018-02-20T09:18:22.218Z,1.20
2018-02-20T09:20:52.031Z,1.20
2018-02-20T09:23:24.659Z,1.30
2018-02-20T09:25:53.905Z,1.40
2018-02-20T09:28:23.795Z,1.40
2018-02-20T09:30:52.619Z,1.40
2018-02-20T09:33:24.219Z,1.50
2018-02-20T09:35:56.711Z,1.60
2018-02-20T09:38:30.677Z,1.60
2018-02-20T09:40:58.462Z,1.60
2018-02-20T09:43:27.452Z,1.90
2018-02-20T09:45:56.976Z,2.00
2018-02-20T09:48:24.874Z,2.00
2018-02-20T09:50:52.462Z,2.00
2018-02-20T09:53:21.656Z,2.20
2018-02-20T09:55:52.741Z,2.30
2018-02-20T09:58:26.743Z,2.30
2018-02-20T10:00:54.483Z,2.40
2018-02-20T10:03:22.112Z,2.60
2018-02-20T10:05:49.673Z,2.70
2018-02-20T10:08:18.809Z,2.80
2018-02-20T10:10:46.886Z,2.60
2018-02-20T10:13:14.494Z,2.60
2018-02-20T10:15:42.076Z,2.60
2018-02-20T10:18:10.523Z,2.50
2018-02-20T10:20:39.364Z,2.50
2018-02-20T10:23:06.959Z,2.50
2018-02-20T10:25:34.959Z,2.50
2018-02-20T10:28:03.102Z,2.50
2018-02-20T10:30:30.734Z,2.50
2018-02-20T10:33:02.540Z,2.50
2018-02-20T10:35:30.127Z,2.60
2018-02-20T10:37:57.726Z,2.50
2018-02-20T10:40:25.936Z,2.50
2018-02-20T10:42:53.587Z,2.50
2018-02-20T10:45:21.214Z,2.70
2018-02-20T10:47:48.824Z,3.00
2018-02-20T10:50:16.487Z,3.40
2018-02-20T10:52:44.786Z,3.80
2018-02-20T10:59:18.596Z,4.20
2018-02-20T11:01:51.850Z,4.50
2018-02-20T11:04:21.507Z,4.60
2018-02-20T11:06:49.084Z,4.60
2018-02-20T11:09:19.812Z,4.80
2018-02-20T11:11:47.429Z,5.10
2018-02-20T11:14:17.244Z,5.70
2018-02-20T11:16:46.928Z,5.70
2018-02-20T11:19:14.671Z,5.70
2018-02-20T11:21:42.803Z,5.80
2018-02-20T11:24:11.854Z,5.90
2018-02-20T11:26:41.236Z,6.00
2018-02-20T11:29:14.958Z,6.50
2018-02-20T11:31:46.134Z,8.00
2018-02-20T11:34:16.624Z,9.40
2018-02-20T11:36:46.641Z,11.10
2018-02-20T11:39:17.586Z,12.60
2018-02-20T11:41:45.963Z,12.30
2018-02-20T11:44:15.858Z,11.80
2018-02-20T11:46:46.170Z,11.70
2018-02-20T11:49:14.964Z,12.50
2018-02-20T12:38:06.545Z,12.30
2018-02-20T12:40:38.154Z,11.50
2018-02-20T12:43:10.624Z,10.80
2018-02-20T12:45:42.985Z,10.30
2018-02-20T12:48:14.051Z,9.80
2018-02-20T12:53:50.530Z,8.40
2018-02-20T12:56:18.353Z,8.00
2018-02-20T12:59:03.313Z,7.80
2018-02-20T13:01:36.877Z,7.70
2018-02-20T13:10:13.307Z,7.40
2018-02-20T13:12:47.605Z,6.70
2018-02-20T13:15:38.617Z,6.70
2018-02-20T13:18:07.771Z,6.70
2018-02-20T13:20:40.582Z,6.60
2018-02-20T13:23:09.456Z,6.60
2018-02-20T13:25:38.230Z,6.40
2018-02-20T13:28:05.903Z,6.30
2018-02-20T13:30:33.545Z,6.40
2018-02-20T13:33:04.053Z,6.50
2018-02-20T13:35:32.301Z,6.60
2018-02-20T13:37:59.992Z,6.50
2018-02-20T13:40:28.285Z,6.40
2018-02-20T13:42:55.934Z,6.30
2018-02-20T13:45:23.926Z,6.10
2018-02-20T13:47:51.693Z,6.10
2018-02-20T13:50:19.389Z,6.20
2018-02-20T13:52:47.798Z,6.50
2018-02-20T13:55:15.776Z,6.70
2018-02-20T13:57:43.576Z,6.70
2018-02-20T14:00:11.205Z,6.60
2018-02-20T14:02:38.792Z,6.70
2018-02-20T14:05:09.583Z,6.60
2018-02-20T14:07:37.306Z,6.60
2018-02-20T14:10:04.986Z,6.70
2018-02-20T14:12:32.987Z,6.90
2018-02-20T14:15:00.753Z,6.90
2018-02-20T14:17:29.336Z,6.80
2018-02-20T14:19:57.030Z,6.60
2018-02-20T14:22:25.637Z,6.50
2018-02-20T14:24:53.313Z,6.20
2018-02-20T14:27:23.528Z,6.00
2018-02-20T14:29:52.868Z,6.00
2018-02-20T14:32:20.693Z,6.10
2018-02-20T14:34:49.373Z,5.90
2018-02-20T14:37:17.066Z,5.90
2018-02-20T14:39:46.116Z,5.80
2018-02-20T14:42:13.838Z,5.80
2018-02-20T14:44:42.625Z,5.80
2018-02-20T14:49:59.154Z,5.40
2018-02-20T14:52:26.849Z,5.10
2018-02-20T14:54:58.063Z,5.10
2018-02-20T14:57:27.684Z,5.10
2018-02-20T14:59:55.358Z,5.10
2018-02-20T15:02:23.004Z,5.10
2018-02-20T15:04:50.686Z,5.10
2018-02-20T15:07:19.157Z,5.10
2018-02-20T15:09:46.857Z,5.10
2018-02-20T15:12:15.489Z,5.00
2018-02-20T15:14:43.154Z,4.90
2018-02-20T15:17:11.447Z,4.80
2018-02-20T15:19:40.056Z,4.70
2018-02-20T15:22:09.513Z,4.60
2018-02-20T15:24:37.244Z,4.60
2018-02-20T15:27:05.337Z,4.40
2018-02-20T15:29:34.280Z,4.40
2018-02-20T15:32:03.023Z,4.20
2018-02-20T15:34:30.710Z,4.10
2018-02-20T15:36:59.687Z,4.10
2018-02-20T15:39:27.391Z,4.00
2018-02-20T15:41:55.027Z,3.90
2018-02-20T15:44:22.697Z,3.90
2018-02-20T15:46:50.452Z,3.80
2018-02-20T17:22:04.968Z,2.60
2018-02-20T17:24:33.270Z,2.70
2018-02-20T17:27:00.855Z,2.70
2018-02-20T17:29:39.253Z,2.70
2018-02-20T17:32:06.829Z,2.70
2018-02-20T17:34:34.398Z,2.70
2018-02-20T17:37:01.959Z,2.70
2018-02-20T17:39:29.528Z,2.70
2018-02-20T17:41:57.199Z,2.70
2018-02-20T17:44:24.820Z,2.70
2018-02-20T17:46:53.109Z,2.70
2018-02-20T17:49:20.704Z,2.70
2018-02-20T17:51:48.243Z,2.70
2018-02-20T17:54:15.816Z,2.70
2018-02-20T17:56:43.766Z,2.70
2018-02-20T17:59:31.322Z,2.70
2018-02-20T18:01:58.903Z,2.70
2018-02-20T18:04:26.968Z,2.70
2018-02-20T18:06:54.567Z,2.70
2018-02-20T18:09:22.119Z,2.60
2018-02-20T18:11:49.693Z,2.60
2018-02-20T18:14:17.315Z,2.60
2018-02-20T18:16:45.289Z,2.60
2018-02-20T18:19:12.842Z,2.70
2018-02-20T18:21:40.824Z,2.60
2018-02-20T18:24:10.252Z,2.60
2018-02-20T18:26:37.837Z,2.60
2018-02-20T18:29:07.053Z,2.60
2018-02-20T18:31:34.800Z,2.60
2018-02-20T18:34:02.403Z,2.60
2018-02-20T18:36:30.482Z,2.60
2018-02-20T18:38:58.711Z,2.60
2018-02-20T18:41:26.305Z,2.60
2018-02-20T18:43:53.907Z,2.60
2018-02-20T18:46:21.532Z,2.60
2018-02-20T18:48:49.665Z,2.60
2018-02-20T18:51:17.864Z,2.60
2018-02-20T18:53:47.362Z,2.60
2018-02-20T18:56:15.362Z,2.60
2018-02-20T18:58:43.614Z,2.50
2018-02-20T19:01:11.791Z,2.50
2018-02-20T19:03:39.802Z,2.60
2018-02-20T19:06:10.599Z,2.50
2018-02-20T19:08:38.653Z,2.50
2018-02-20T19:11:07.680Z,2.50
2018-02-20T19:13:47.175Z,2.50
2018-02-20T19:16:14.776Z,2.40
2018-02-20T19:18:44.424Z,2.40
2018-02-20T19:21:11.997Z,2.40
2018-02-20T19:23:39.763Z,2.40
2018-02-20T19:26:07.362Z,2.40
2018-02-20T19:28:35.318Z,2.30
2018-02-20T19:31:03.330Z,2.30
2018-02-20T19:33:30.928Z,2.30
2018-02-20T19:35:58.441Z,2.20
2018-02-20T19:38:26.009Z,2.20
2018-02-20T19:40:53.568Z,2.20
2018-02-20T19:43:21.200Z,2.10
2018-02-20T19:46:00.102Z,2.00
2018-02-20T19:48:28.528Z,2.00
2018-02-20T19:50:57.034Z,2.00
2018-02-20T19:53:24.652Z,1.90
2018-02-20T19:55:52.597Z,1.70
2018-02-20T19:58:20.163Z,1.70
2018-02-20T20:00:48.170Z,1.60
2018-02-20T20:03:17.003Z,1.60
2018-02-20T20:05:44.808Z,1.50
2018-02-20T20:08:12.399Z,1.50
2018-02-20T20:10:40.231Z,1.50
2018-02-20T20:13:07.848Z,1.60
2018-02-20T20:15:35.491Z,1.60
2018-02-20T20:18:03.146Z,1.60
2018-02-20T20:20:37.009Z,1.60
2018-02-20T20:22:58.418Z,1.60
2018-02-20T20:25:27.114Z,1.40
2018-02-20T20:27:54.823Z,1.30
2018-02-20T20:30:22.544Z,1.30
2018-02-20T20:32:50.169Z,1.30
2018-02-20T20:35:18.371Z,1.20
2018-02-20T20:37:46.302Z,1.20
2018-02-20T20:40:15.488Z,1.10
2018-02-20T20:42:44.019Z,1.20
2018-02-20T20:45:11.975Z,1.20
2018-02-20T20:47:40.191Z,1.10
2018-02-20T20:50:07.861Z,1.20
2018-02-20T20:52:36.277Z,1.20
2018-02-20T20:55:03.855Z,1.30
2018-02-20T20:57:31.483Z,1.30
2018-02-20T20:59:59.095Z,1.40
2018-02-20T21:02:26.684Z,1.50
2018-02-20T21:04:54.255Z,1.50
2018-02-20T21:07:22.692Z,1.50
2018-02-20T21:09:50.680Z,1.50
2018-02-20T21:12:18.253Z,1.50
2018-02-20T21:14:45.909Z,1.50
2018-02-20T21:17:13.958Z,1.50
2018-02-20T21:19:42.150Z,1.50
2018-02-20T21:22:09.720Z,1.50
2018-02-20T21:24:37.341Z,1.40
2018-02-20T21:27:04.906Z,1.40
2018-02-20T21:29:32.949Z,1.30
2018-02-20T21:32:00.577Z,1.30
2018-02-20T21:34:28.572Z,1.30
2018-02-20T21:36:56.502Z,1.30
2018-02-20T21:39:24.078Z,1.30
2018-02-20T21:41:51.670Z,1.30
2018-02-20T21:44:19.245Z,1.30
2018-02-20T21:46:47.724Z,1.30
2018-02-20T21:49:15.690Z,1.30
2018-02-20T21:51:43.317Z,1.20
2018-02-20T21:54:10.885Z,1.20
2018-02-20T21:56:40.032Z,1.10
2018-02-20T21:59:07.667Z,1.00
2018-02-20T22:01:40.191Z,1.00
2018-02-20T22:04:07.916Z,0.90
2018-02-20T22:06:35.916Z,0.80
2018-02-20T22:09:03.490Z,0.80
2018-02-20T22:11:31.051Z,0.70
2018-02-20T22:13:58.662Z,0.60
2018-02-20T22:16:26.259Z,0.50
2018-02-20T22:18:53.866Z,0.40
2018-02-20T22:21:21.892Z,0.20
2018-02-20T22:23:49.498Z,0.20
2018-02-20T22:26:17.069Z,0.20
2018-02-20T22:28:45.093Z,0.20
2018-02-20T22:31:19.981Z,0.30
2018-02-20T22:33:47.610Z,0.30
2018-02-20T22:36:15.240Z,0.40
2018-02-20T22:38:42.843Z,0.40
2018-02-20T22:41:10.477Z,0.50
2018-02-20T22:43:38.028Z,0.50
2018-02-20T22:46:05.716Z,0.60
2018-02-20T22:48:33.394Z,0.60
2018-02-20T22:51:00.933Z,0.70
2018-02-20T22:53:28.977Z,0.70
2018-02-20T22:55:56.557Z,0.70
2018-02-20T22:58:24.139Z,0.70
2018-02-20T23:00:51.713Z,0.80
2018-02-20T23:03:19.374Z,0.80
2018-02-20T23:05:47.319Z,0.70
2018-02-20T23:08:14.889Z,0.70
2018-02-20T23:10:42.462Z,0.70
2018-02-20T23:13:10.039Z,0.70
2018-02-20T23:15:37.976Z,0.70
2018-02-20T23:18:11.159Z,0.60
2018-02-20T23:20:38.697Z,0.60
2018-02-20T23:23:06.289Z,0.60
2018-02-20T23:28:32.270Z,0.70
2018-02-20T23:30:59.898Z,0.80
2018-02-20T23:33:28.830Z,0.80
2018-02-20T23:35:56.415Z,0.90
2018-02-20T23:38:30.323Z,0.90
2018-02-20T23:40:57.918Z,1.00
2018-02-20T23:43:25.897Z,1.00
2018-02-20T23:46:00.500Z,1.00
2018-02-20T23:48:28.489Z,1.00
2018-02-20T23:51:01.616Z,1.00
2018-02-20T23:53:29.206Z,1.00
2018-02-20T23:55:59.019Z,1.00
2018-02-20T23:58:27.465Z,0.90
